createdAt,value
2022-08-08T00:00:55.399Z,101081.38
2022-08-08T00:03:15.302Z,101084.03
2022-08-08T00:06:28.443Z,101088.66
2022-08-08T00:09:07.790Z,101086.38
2022-08-08T00:11:46.823Z,101082.88
2022-08-08T00:14:56.939Z,101089.41
2022-08-08T00:18:03.465Z,101085.56
2022-08-08T00:20:49.718Z,101097.09
2022-08-08T00:23:43.449Z,101086.69
2022-08-08T00:26:29.466Z,101096.69
2022-08-08T00:29:07.883Z,101096.66
2022-08-08T00:32:28.374Z,101093.59
2022-08-08T00:35:20.310Z,101104.69
2022-08-08T00:38:04.495Z,101101.25
2022-08-08T00:41:11.217Z,101105.44
2022-08-08T00:44:01.917Z,101092.44
2022-08-08T00:46:58.207Z,101091.69
2022-08-08T00:49:58.467Z,101094.66
2022-08-08T00:52:48.566Z,101092.81
2022-08-08T00:55:35.912Z,101092.41
2022-08-08T00:58:30.555Z,101086.66
2022-08-08T01:01:13.386Z,101092.78
2022-08-08T01:04:11.271Z,101090.09
2022-08-08T01:06:47.472Z,101087.03
2022-08-08T01:09:41.135Z,101093.06
2022-08-08T01:12:50.224Z,101078.16
2022-08-08T01:15:56.581Z,101080.47
2022-08-08T01:18:55.817Z,101077.06
2022-08-08T01:22:12.217Z,101080.06
2022-08-08T01:24:53.835Z,101080.91
2022-08-08T01:28:00.034Z,101080.88
2022-08-08T01:30:48.881Z,101072.13
2022-08-08T01:34:00.041Z,101081.91
2022-08-08T01:36:39.638Z,101076.97
2022-08-08T01:39:23.935Z,101075.81
2022-08-08T01:42:15.709Z,101079.25
2022-08-08T01:45:02.913Z,101084.63
2022-08-08T01:48:16.686Z,101089.22
2022-08-08T01:51:30.330Z,101096.47
2022-08-08T01:55:17.849Z,101090.28
2022-08-08T01:57:33.763Z,101090.75
2022-08-08T02:00:44.787Z,101091.50
2022-08-08T02:03:50.580Z,101093.66
2022-08-08T02:06:48.501Z,101091.13
2022-08-08T02:10:03.271Z,101089.16
2022-08-08T02:12:49.853Z,101092.81
2022-08-08T02:15:22.048Z,101099.28
2022-08-08T02:18:03.866Z,101101.31
2022-08-08T02:21:13.621Z,101097.44
2022-08-08T02:24:14.680Z,101101.19
2022-08-08T02:27:01.565Z,101101.88
2022-08-08T02:30:05.829Z,101100.34
2022-08-08T02:33:10.789Z,101101.78
2022-08-08T02:36:16.545Z,101101.75
2022-08-08T02:39:41.178Z,101105.06
2022-08-08T02:42:38.255Z,101104.13
2022-08-08T02:45:54.162Z,101110.59
2022-08-08T02:48:27.491Z,101096.84
2022-08-08T02:51:21.047Z,101100.91
2022-08-08T02:54:02.285Z,101094.72
2022-08-08T02:56:51.031Z,101095.81
2022-08-08T02:59:57.775Z,101093.69
2022-08-08T03:02:50.504Z,101095.41
2022-08-08T03:05:45.482Z,101093.97
2022-08-08T03:08:34.975Z,101094.13
2022-08-08T03:12:00.977Z,101098.09
2022-08-08T03:15:56.873Z,101102.28
2022-08-08T03:17:39.712Z,101098.56
2022-08-08T03:20:08.083Z,101097.16
2022-08-08T03:22:56.671Z,101097.88
2022-08-08T03:25:35.816Z,101105.47
2022-08-08T03:28:07.539Z,101096.56
2022-08-08T03:30:34.621Z,101095.28
2022-08-08T03:33:56.085Z,101095.03
2022-08-08T03:36:10.341Z,101092.91
2022-08-08T03:38:55.752Z,101086.81
2022-08-08T03:42:11.561Z,101102.16
2022-08-08T03:44:25.728Z,101110.53
2022-08-08T03:46:52.863Z,101108.25
2022-08-08T03:49:57.356Z,101099.78
2022-08-08T03:52:13.953Z,101103.06
2022-08-08T03:55:02.059Z,101108.59
2022-08-08T03:58:30.602Z,101114.34
2022-08-08T04:00:18.898Z,101118.78
2022-08-08T04:03:11.515Z,101119.69
2022-08-08T04:05:39.949Z,101122.78
2022-08-08T04:08:33.782Z,101122.69
2022-08-08T04:11:02.852Z,101126.81
2022-08-08T04:14:03.153Z,101129.84
2022-08-08T04:16:38.534Z,101135.38
2022-08-08T04:19:23.069Z,101132.94
2022-08-08T04:21:50.868Z,101131.84
2022-08-08T04:24:22.426Z,101131.06
2022-08-08T04:26:57.065Z,101139.06
2022-08-08T04:29:25.307Z,101138.66
2022-08-08T04:31:58.366Z,101137.63
2022-08-08T04:34:28.071Z,101134.84
2022-08-08T04:36:58.657Z,101139.50
2022-08-08T04:40:03.167Z,101145.97
2022-08-08T04:42:11.942Z,101147.41
2022-08-08T04:44:42.644Z,101142.53
2022-08-08T04:47:14.676Z,101151.75
2022-08-08T04:50:00.678Z,101153.72
2022-08-08T04:52:33.921Z,101151.38
2022-08-08T04:55:02.050Z,101160.50
2022-08-08T04:57:29.045Z,101156.47
2022-08-08T04:59:59.514Z,101156.38
2022-08-08T05:02:31.528Z,101167.19
2022-08-08T05:04:59.564Z,101168.44
2022-08-08T05:07:38.158Z,101163.38
2022-08-08T05:10:12.934Z,101165.88
2022-08-08T05:13:00.014Z,101169.66
2022-08-08T05:16:48.527Z,101174.22
2022-08-08T05:18:13.708Z,101178.03
2022-08-08T05:20:48.343Z,101177.22
2022-08-08T05:23:17.423Z,101184.78
2022-08-08T05:25:44.146Z,101172.88
2022-08-08T05:28:15.001Z,101183.34
2022-08-08T05:30:47.199Z,101183.75
2022-08-08T05:33:14.507Z,101186.53
2022-08-08T05:35:43.730Z,101194.34
2022-08-08T05:38:32.019Z,101196.22
2022-08-08T05:40:59.122Z,101194.47
2022-08-08T05:43:39.978Z,101194.00
2022-08-08T05:46:16.091Z,101203.31
2022-08-08T05:48:43.607Z,101195.38
2022-08-08T05:51:18.948Z,101194.09
2022-08-08T05:53:56.228Z,101196.56
2022-08-08T05:56:42.407Z,101191.44
2022-08-08T05:59:59.910Z,101200.53
2022-08-08T06:02:41.293Z,101200.16
2022-08-08T06:05:34.197Z,101201.28
2022-08-08T06:08:02.562Z,101209.06
2022-08-08T06:10:31.804Z,101217.25
2022-08-08T06:13:07.915Z,101219.47
2022-08-08T06:15:50.589Z,101216.47
2022-08-08T06:18:21.201Z,101224.44
2022-08-08T06:20:56.246Z,101224.59
2022-08-08T06:23:49.061Z,101221.09
2022-08-08T06:26:43.311Z,101222.69
2022-08-08T06:29:49.138Z,101227.84
2022-08-08T06:32:10.190Z,101233.41
2022-08-08T06:34:52.620Z,101233.38
2022-08-08T06:37:37.379Z,101231.25
2022-08-08T06:40:07.232Z,101235.28
2022-08-08T06:42:40.529Z,101234.34
2022-08-08T06:45:08.642Z,101227.34
2022-08-08T06:47:58.077Z,101225.31
2022-08-08T06:50:31.752Z,101230.09
2022-08-08T06:53:10.018Z,101233.09
2022-08-08T06:55:42.129Z,101237.25
2022-08-08T06:58:09.934Z,101243.50
2022-08-08T07:00:40.860Z,101240.19
2022-08-08T07:03:51.674Z,101239.69
2022-08-08T07:06:02.427Z,101246.63
2022-08-08T07:08:37.207Z,101249.19
2022-08-08T07:11:05.313Z,101243.59
2022-08-08T07:14:00.350Z,101244.75
2022-08-08T07:16:51.095Z,101249.66
2022-08-08T07:19:40.278Z,101244.94
2022-08-08T07:22:12.029Z,101247.72
2022-08-08T07:24:54.899Z,101251.09
2022-08-08T07:27:35.329Z,101253.94
2022-08-08T07:30:16.686Z,101254.06
2022-08-08T07:32:47.942Z,101255.69
2022-08-08T07:35:15.502Z,101259.06
2022-08-08T07:37:55.833Z,101264.53
2022-08-08T07:40:33.043Z,101264.47
2022-08-08T07:43:04.161Z,101264.69
2022-08-08T07:46:05.239Z,101267.53
2022-08-08T07:48:23.825Z,101273.66
2022-08-08T07:50:52.463Z,101261.38
2022-08-08T07:54:00.737Z,101260.09
2022-08-08T07:56:17.430Z,101268.19
2022-08-08T07:59:03.641Z,101263.47
2022-08-08T08:02:35.104Z,101264.84
2022-08-08T08:04:26.039Z,101268.59
2022-08-08T08:06:53.826Z,101262.25
2022-08-08T08:09:25.003Z,101263.81
2022-08-08T08:11:55.641Z,101261.75
2022-08-08T08:14:36.513Z,101274.84
2022-08-08T08:17:03.216Z,101274.66
2022-08-08T08:19:45.043Z,101273.84
2022-08-08T08:22:12.506Z,101272.34
2022-08-08T08:24:46.448Z,101274.69
2022-08-08T08:27:13.505Z,101274.69
2022-08-08T08:29:40.103Z,101265.34
2022-08-08T08:32:09.241Z,101279.81
2022-08-08T08:34:43.185Z,101280.38
2022-08-08T08:37:10.126Z,101279.19
2022-08-08T08:40:00.622Z,101275.38
2022-08-08T08:42:29.313Z,101273.69
2022-08-08T08:45:00.953Z,101274.69
2022-08-08T08:47:43.695Z,101272.69
2022-08-08T08:50:31.869Z,101284.59
2022-08-08T08:53:04.466Z,101285.06
2022-08-08T08:55:39.470Z,101279.69
2022-08-08T08:58:09.378Z,101271.91
2022-08-08T09:01:02.852Z,101274.19
2022-08-08T09:03:31.432Z,101275.81
2022-08-08T09:06:33.208Z,101269.44
2022-08-08T09:09:26.661Z,101265.97
2022-08-08T09:12:02.032Z,101269.41
2022-08-08T09:14:35.838Z,101268.66
2022-08-08T09:17:18.238Z,101268.69
2022-08-08T09:22:00.295Z,101267.66
2022-08-08T09:22:46.781Z,101265.75
2022-08-08T09:25:15.238Z,101264.19
2022-08-08T09:27:57.301Z,101273.84
2022-08-08T09:30:27.736Z,101263.41
2022-08-08T09:33:12.640Z,101265.13
2022-08-08T09:35:49.198Z,101258.25
2022-08-08T09:38:53.311Z,101266.47
2022-08-08T09:42:14.501Z,101253.94
2022-08-08T09:44:48.132Z,101253.75
2022-08-08T09:48:02.733Z,101256.88
2022-08-08T09:50:17.017Z,101252.38
2022-08-08T09:52:56.245Z,101250.00
2022-08-08T09:56:05.473Z,101248.06
2022-08-08T09:58:27.766Z,101253.50
2022-08-08T10:01:14.274Z,101243.25
2022-08-08T10:03:46.181Z,101244.91
2022-08-08T10:06:26.764Z,101247.84
2022-08-08T10:08:56.675Z,101249.47
2022-08-08T10:12:26.220Z,101239.31
2022-08-08T10:14:28.356Z,101245.88
2022-08-08T10:16:58.639Z,101234.88
2022-08-08T10:19:57.417Z,101237.28
2022-08-08T10:22:26.696Z,101235.38
2022-08-08T10:25:01.347Z,101237.00
2022-08-08T10:27:34.148Z,101229.81
2022-08-08T10:30:05.227Z,101217.34
2022-08-08T10:32:35.361Z,101242.34
2022-08-08T10:35:11.540Z,101232.56
2022-08-08T10:37:58.878Z,101226.88
2022-08-08T10:40:32.247Z,101226.50
2022-08-08T10:43:03.178Z,101222.81
2022-08-08T10:45:39.053Z,101222.59
2022-08-08T10:48:11.105Z,101215.94
2022-08-08T10:50:38.901Z,101215.41
2022-08-08T10:53:12.887Z,101212.84
2022-08-08T10:55:46.598Z,101206.44
2022-08-08T10:58:13.860Z,101206.09
2022-08-08T11:00:53.205Z,101201.59
2022-08-08T11:04:00.550Z,101201.59
2022-08-08T11:06:36.411Z,101205.81
2022-08-08T11:09:20.061Z,101205.03
2022-08-08T11:12:05.226Z,101213.03
2022-08-08T11:14:50.428Z,101206.50
2022-08-08T11:17:59.589Z,101199.16
2022-08-08T11:20:12.832Z,101197.16
2022-08-08T11:22:41.133Z,101198.75
2022-08-08T11:25:14.505Z,101196.88
2022-08-08T11:27:46.929Z,101190.75
2022-08-08T11:30:19.450Z,101198.69
2022-08-08T11:32:48.295Z,101193.75
2022-08-08T11:35:27.315Z,101186.25
2022-08-08T11:38:35.528Z,101183.66
2022-08-08T11:40:52.784Z,101194.56
2022-08-08T11:43:21.578Z,101185.47
2022-08-08T11:46:09.998Z,101187.06
2022-08-08T11:48:38.768Z,101187.06
2022-08-08T11:51:30.562Z,101182.56
2022-08-08T11:53:55.231Z,101184.66
2022-08-08T11:56:34.416Z,101184.00
2022-08-08T11:59:10.046Z,101184.22
2022-08-08T12:01:37.089Z,101176.53
2022-08-08T12:04:06.742Z,101176.63
2022-08-08T12:06:33.714Z,101168.84
2022-08-08T12:09:08.321Z,101172.59
2022-08-08T12:11:39.916Z,101162.88
2022-08-08T12:14:07.740Z,101159.06
2022-08-08T12:16:49.142Z,101151.38
2022-08-08T12:19:16.016Z,101149.59
2022-08-08T12:22:00.553Z,101153.06
2022-08-08T12:24:51.262Z,101141.28
2022-08-08T12:27:22.578Z,101142.13
2022-08-08T12:29:58.965Z,101153.06
2022-08-08T12:32:26.036Z,101148.00
2022-08-08T12:35:04.866Z,101141.09
2022-08-08T12:37:43.116Z,101143.03
2022-08-08T12:40:22.991Z,101146.47
2022-08-08T12:42:52.100Z,101143.63
2022-08-08T12:45:57.754Z,101149.06
2022-08-08T12:48:37.039Z,101142.06
2022-08-08T12:51:07.825Z,101141.94
2022-08-08T12:53:57.577Z,101131.84
2022-08-08T12:56:40.032Z,101132.72
2022-08-08T12:59:45.084Z,101142.75
2022-08-08T13:02:28.317Z,101138.53
2022-08-08T13:05:05.735Z,101126.38
2022-08-08T13:08:02.179Z,101135.59
2022-08-08T13:10:36.508Z,101135.31
2022-08-08T13:13:27.854Z,101126.81
2022-08-08T13:15:55.116Z,101122.38
2022-08-08T13:18:27.433Z,101122.91
2022-08-08T13:20:55.930Z,101127.94
2022-08-08T13:23:31.165Z,101122.59
2022-08-08T13:26:13.348Z,101112.16
2022-08-08T13:28:42.484Z,101121.94
2022-08-08T13:31:12.971Z,101120.44
2022-08-08T13:33:46.341Z,101112.75
2022-08-08T13:36:14.158Z,101114.69
2022-08-08T13:38:41.185Z,101111.31
2022-08-08T13:41:16.959Z,101113.16
2022-08-08T13:43:46.558Z,101113.50
2022-08-08T13:46:27.152Z,101106.09
2022-08-08T13:50:33.564Z,101105.06
2022-08-08T13:52:04.318Z,101103.00
2022-08-08T13:54:33.431Z,101103.09
2022-08-08T13:57:12.574Z,101099.38
2022-08-08T13:59:48.267Z,101100.97
2022-08-08T14:02:30.946Z,101096.34
2022-08-08T14:05:09.137Z,101098.53
2022-08-08T14:07:49.828Z,101095.00
2022-08-08T14:10:33.277Z,101099.34
2022-08-08T14:13:09.978Z,101096.78
2022-08-08T14:16:04.428Z,101098.03
2022-08-08T14:18:35.906Z,101098.03
2022-08-08T14:21:20.855Z,101097.75
2022-08-08T14:24:04.215Z,101094.78
2022-08-08T14:26:43.081Z,101092.19
2022-08-08T14:29:28.436Z,101091.81
2022-08-08T14:32:09.478Z,101079.75
2022-08-08T14:34:42.136Z,101086.84
2022-08-08T14:37:12.663Z,101091.44
2022-08-08T14:40:05.389Z,101090.91
2022-08-08T14:42:55.113Z,101085.56
2022-08-08T14:45:46.934Z,101080.69
2022-08-08T14:48:17.663Z,101080.53
2022-08-08T14:51:04.444Z,101077.88
2022-08-08T14:53:56.762Z,101080.50
2022-08-08T14:56:24.813Z,101083.59
2022-08-08T14:58:52.764Z,101079.06
2022-08-08T15:01:37.246Z,101079.28
2022-08-08T15:04:09.605Z,101072.94
2022-08-08T15:06:37.407Z,101072.00
2022-08-08T15:09:06.854Z,101066.28
2022-08-08T15:11:43.013Z,101075.38
2022-08-08T15:14:14.529Z,101070.72
2022-08-08T15:16:44.179Z,101073.72
2022-08-08T15:19:11.278Z,101075.69
2022-08-08T15:21:43.021Z,101065.16
2022-08-08T15:24:13.716Z,101063.88
2022-08-08T15:26:41.941Z,101063.25
2022-08-08T15:29:08.642Z,101066.31
2022-08-08T15:32:03.492Z,101066.31
2022-08-08T15:34:30.070Z,101059.97
2022-08-08T15:37:01.852Z,101053.38
2022-08-08T15:39:31.611Z,101058.03
2022-08-08T15:42:06.833Z,101057.06
2022-08-08T15:44:37.500Z,101055.06
2022-08-08T15:47:07.234Z,101054.78
2022-08-08T15:49:44.266Z,101052.31
2022-08-08T15:52:12.900Z,101048.44
2022-08-08T15:54:41.525Z,101042.44
2022-08-08T15:57:09.566Z,101051.31
2022-08-08T16:00:05.837Z,101046.75
2022-08-08T16:02:28.849Z,101048.88
2022-08-08T16:04:59.161Z,101048.34
2022-08-08T16:07:50.924Z,101039.28
2022-08-08T16:13:12.267Z,101047.69
2022-08-08T16:13:28.476Z,101050.72
2022-08-08T16:15:58.861Z,101046.00
2022-08-08T16:18:27.862Z,101048.28
2022-08-08T16:21:00.201Z,101041.00
2022-08-08T16:23:31.751Z,101042.13
2022-08-08T16:26:04.348Z,101038.34
2022-08-08T16:28:35.165Z,101044.34
2022-08-08T16:31:03.333Z,101044.47
2022-08-08T16:33:38.134Z,101039.59
2022-08-08T16:36:05.824Z,101038.88
2022-08-08T16:38:44.350Z,101034.28
2022-08-08T16:41:20.649Z,101039.53
2022-08-08T16:43:51.177Z,101046.13
2022-08-08T16:46:39.004Z,101043.34
2022-08-08T16:49:08.820Z,101031.56
2022-08-08T16:54:59.749Z,101036.31
2022-08-08T16:55:13.975Z,101034.81
2022-08-08T16:57:27.770Z,101033.72
2022-08-08T17:00:01.146Z,101039.41
2022-08-08T17:02:38.470Z,101036.09
2022-08-08T17:05:08.106Z,101033.13
2022-08-08T17:07:37.936Z,101033.50
2022-08-08T17:10:08.897Z,101029.75
2022-08-08T17:12:38.925Z,101030.88
2022-08-08T17:15:17.997Z,101033.28
2022-08-08T17:18:00.993Z,101029.94
2022-08-08T17:20:29.263Z,101037.75
2022-08-08T17:23:16.771Z,101033.63
2022-08-08T17:25:51.973Z,101035.13
2022-08-08T17:28:28.803Z,101040.00
2022-08-08T17:31:02.351Z,101040.94
2022-08-08T17:34:52.813Z,101039.63
2022-08-08T17:36:35.402Z,101045.69
2022-08-08T17:39:05.531Z,101046.59
2022-08-08T17:41:58.094Z,101048.41
2022-08-08T17:44:26.806Z,101048.28
2022-08-08T17:46:56.868Z,101052.66
2022-08-08T17:49:28.610Z,101050.97
2022-08-08T17:52:05.560Z,101056.75
2022-08-08T17:54:33.686Z,101059.31
2022-08-08T17:57:01.200Z,101057.50
2022-08-08T17:59:30.600Z,101059.66
2022-08-08T18:02:04.533Z,101062.19
2022-08-08T18:04:38.530Z,101066.44
2022-08-08T18:08:03.651Z,101070.69
2022-08-08T18:10:04.775Z,101078.53
2022-08-08T18:12:38.260Z,101080.97
2022-08-08T18:15:07.466Z,101082.28
2022-08-08T18:18:27.469Z,101086.50
2022-08-08T18:20:42.844Z,101084.81
2022-08-08T18:23:12.490Z,101085.06
2022-08-08T18:25:41.645Z,101089.88
2022-08-08T18:28:13.560Z,101088.69
2022-08-08T18:30:42.820Z,101093.19
2022-08-08T18:33:36.798Z,101094.47
2022-08-08T18:36:03.130Z,101100.31
2022-08-08T18:38:31.034Z,101097.25
2022-08-08T18:40:59.158Z,101107.19
2022-08-08T18:43:37.723Z,101116.38
2022-08-08T18:46:55.416Z,101116.47
2022-08-08T18:48:56.249Z,101110.78
2022-08-08T18:51:48.491Z,101123.72
2022-08-08T18:54:21.872Z,101127.13
2022-08-08T18:56:49.994Z,101131.31
2022-08-08T18:59:17.047Z,101140.75
2022-08-08T19:02:26.572Z,101145.22
2022-08-08T19:04:31.080Z,101147.75
2022-08-08T19:06:57.740Z,101152.13
2022-08-08T19:09:48.331Z,101156.03
2022-08-08T19:12:13.578Z,101156.81
2022-08-08T19:14:40.268Z,101158.75
2022-08-08T19:17:10.650Z,101158.19
2022-08-08T19:19:37.939Z,101164.63
2022-08-08T19:22:11.042Z,101161.16
2022-08-08T19:24:48.421Z,101172.09
2022-08-08T19:27:57.210Z,101184.91
2022-08-08T19:30:13.164Z,101178.38
2022-08-08T19:32:51.828Z,101182.72
2022-08-08T19:35:19.915Z,101176.81
2022-08-08T19:37:57.298Z,101184.09
2022-08-08T19:40:30.989Z,101183.31
2022-08-08T19:42:59.662Z,101181.97
2022-08-08T19:45:58.329Z,101187.13
2022-08-08T19:48:29.150Z,101184.69
2022-08-08T19:50:59.051Z,101192.06
2022-08-08T19:53:51.613Z,101187.13
2022-08-08T19:56:13.679Z,101192.91
2022-08-08T19:58:40.313Z,101192.50
2022-08-08T20:01:17.243Z,101199.44
2022-08-08T20:04:00.454Z,101204.94
2022-08-08T20:06:30.874Z,101215.13
2022-08-08T20:08:58.164Z,101203.25
2022-08-08T20:11:24.781Z,101211.63
2022-08-08T20:14:13.078Z,101214.75
2022-08-08T20:16:40.814Z,101214.44
2022-08-08T20:19:08.813Z,101214.06
2022-08-08T20:21:37.275Z,101216.00
2022-08-08T20:24:07.855Z,101222.31
2022-08-08T20:26:35.809Z,101223.25
2022-08-08T20:29:06.839Z,101225.50
2022-08-08T20:32:07.516Z,101221.41
2022-08-08T20:34:28.671Z,101226.69
2022-08-08T20:37:03.101Z,101225.47
2022-08-08T20:39:39.441Z,101229.00
2022-08-08T20:42:09.122Z,101227.88
2022-08-08T20:44:37.568Z,101223.84
2022-08-08T20:47:05.266Z,101225.84
2022-08-08T20:49:46.881Z,101232.72
2022-08-08T20:52:13.922Z,101235.09
2022-08-08T20:54:42.395Z,101236.81
2022-08-08T20:57:18.708Z,101248.13
2022-08-08T20:59:46.739Z,101241.72
2022-08-08T21:02:15.347Z,101239.63
2022-08-08T21:04:47.667Z,101248.84
2022-08-08T21:07:17.221Z,101247.19
2022-08-08T21:10:07.922Z,101252.16
2022-08-08T21:12:44.511Z,101254.59
2022-08-08T21:15:16.218Z,101261.66
2022-08-08T21:17:43.376Z,101254.78
2022-08-08T21:20:11.899Z,101248.97
2022-08-08T21:22:38.643Z,101260.16
2022-08-08T21:25:10.598Z,101262.25
2022-08-08T21:28:09.089Z,101255.59
2022-08-08T21:30:26.581Z,101264.88
2022-08-08T21:32:53.495Z,101258.47
2022-08-08T21:36:17.270Z,101263.16
2022-08-08T21:38:16.162Z,101271.34
2022-08-08T21:40:56.475Z,101263.63
2022-08-08T21:43:34.100Z,101269.03
2022-08-08T21:48:05.671Z,101264.63
2022-08-08T21:48:57.373Z,101267.94
2022-08-08T21:54:18.486Z,101264.81
2022-08-08T21:54:35.659Z,101269.84
2022-08-08T21:57:08.207Z,101273.13
2022-08-08T22:00:01.227Z,101267.94
2022-08-08T22:02:24.177Z,101274.44
2022-08-08T22:04:52.627Z,101277.34
2022-08-08T22:07:19.199Z,101274.97
2022-08-08T22:09:46.169Z,101272.81
2022-08-08T22:12:17.115Z,101278.16
2022-08-08T22:14:49.875Z,101277.47
2022-08-08T22:17:18.115Z,101279.00
2022-08-08T22:20:10.849Z,101284.28
2022-08-08T22:22:38.037Z,101279.44
2022-08-08T22:25:12.354Z,101284.41
2022-08-08T22:28:03.868Z,101277.31
2022-08-08T22:30:38.511Z,101284.31
2022-08-08T22:33:09.063Z,101282.03
2022-08-08T22:36:04.145Z,101288.69
2022-08-08T22:38:37.613Z,101286.03
2022-08-08T22:41:16.466Z,101289.97
2022-08-08T22:44:02.178Z,101294.22
2022-08-08T22:46:32.836Z,101290.09
2022-08-08T22:48:59.652Z,101292.47
2022-08-08T22:51:29.162Z,101283.22
2022-08-08T22:54:30.508Z,101284.69
2022-08-08T22:56:42.922Z,101284.78
2022-08-08T22:59:14.116Z,101282.16
2022-08-08T23:02:02.412Z,101285.25
2022-08-08T23:04:32.254Z,101280.63
2022-08-08T23:07:02.371Z,101285.25
2022-08-08T23:09:30.528Z,101291.72
2022-08-08T23:12:27.855Z,101286.94
2022-08-08T23:14:56.435Z,101286.59
2022-08-08T23:17:30.038Z,101294.31
2022-08-08T23:19:56.784Z,101297.03
2022-08-08T23:22:23.494Z,101296.22
2022-08-08T23:24:50.922Z,101302.06
2022-08-08T23:27:39.053Z,101299.72
2022-08-08T23:30:09.236Z,101300.59
2022-08-08T23:32:36.242Z,101297.78
2022-08-08T23:35:12.671Z,101299.00
2022-08-08T23:38:03.207Z,101307.13
2022-08-08T23:40:30.909Z,101308.69
2022-08-08T23:42:57.612Z,101304.91
2022-08-08T23:48:59.927Z,101315.59
2022-08-08T23:49:05.462Z,101313.25
2022-08-08T23:50:58.002Z,101310.28
2022-08-08T23:53:55.999Z,101308.78
2022-08-08T23:56:12.077Z,101309.47
2022-08-08T23:58:38.884Z,101317.25
